Terminal Aerodrome Forecast
Issued by NWS

Current Version | Previous Version | Text Only | Print | Product List | Glossary On
Versions: 1 2 3 4 5 6 7 8 9 10 11 12
000
FTUS46 KSTO 172300
TAFSMF
TAF
KSMF 172340Z 1800/1824 19015KT P6SM SKC
     FM180500 17009KT P6SM SCT100 BKN200
     FM181000 17005KT P6SM VCSH SCT035 OVC060=

USA.gov is the U.S. government's official web portal to all federal, state and local government web resources and services.